createdAt,value
2018-11-14T00:01:22.545Z,4.13
2018-11-14T00:03:56.601Z,4.10
2018-11-14T00:06:30.462Z,4.00
2018-11-14T00:09:06.315Z,4.53
2018-11-14T00:11:40.666Z,3.57
2018-11-14T00:14:14.730Z,3.80
2018-11-14T00:16:48.682Z,4.27
2018-11-14T00:19:22.697Z,4.37
2018-11-14T00:21:56.590Z,4.70
2018-11-14T00:24:30.491Z,4.67
2018-11-14T00:27:04.398Z,4.80
2018-11-14T00:29:38.349Z,5.30
2018-11-14T00:32:12.221Z,4.53
2018-11-14T00:34:46.244Z,5.77
2018-11-14T00:37:20.275Z,5.87
2018-11-14T00:39:54.109Z,4.30
2018-11-14T00:42:27.969Z,5.07
2018-11-14T00:45:01.982Z,4.47
2018-11-14T00:47:35.898Z,5.13
2018-11-14T00:50:10.804Z,5.37
2018-11-14T00:52:45.198Z,6.33
2018-11-14T00:55:20.204Z,5.63
2018-11-14T00:57:54.086Z,6.20
2018-11-14T01:00:28.103Z,5.17
2018-11-14T01:03:02.147Z,6.10
2018-11-14T01:05:35.962Z,6.13
2018-11-14T01:08:09.992Z,4.80
2018-11-14T01:10:44.029Z,5.30
2018-11-14T01:13:18.129Z,5.90
2018-11-14T01:15:51.906Z,4.70
2018-11-14T01:18:26.354Z,6.23
2018-11-14T01:21:00.440Z,5.80
2018-11-14T01:23:34.548Z,4.70
2018-11-14T01:26:08.612Z,4.80
2018-11-14T01:28:42.565Z,4.17
2018-11-14T01:31:16.430Z,5.23
2018-11-14T01:33:50.422Z,4.80
2018-11-14T01:36:24.361Z,5.40
2018-11-14T01:38:58.196Z,6.00
2018-11-14T01:41:32.061Z,4.90
2018-11-14T01:44:06.163Z,5.37
2018-11-14T01:46:40.117Z,5.80
2018-11-14T01:49:14.102Z,5.50
2018-11-14T01:51:48.060Z,5.17
2018-11-14T01:54:21.985Z,4.63
2018-11-14T01:56:56.005Z,5.27
2018-11-14T01:59:29.887Z,5.40
2018-11-14T02:02:03.768Z,5.83
2018-11-14T02:04:37.714Z,4.90
2018-11-14T02:07:11.910Z,6.30
2018-11-14T02:09:45.942Z,5.67
2018-11-14T02:12:20.005Z,6.10
2018-11-14T02:14:54.038Z,5.97
2018-11-14T02:17:27.973Z,4.50
2018-11-14T02:20:01.971Z,5.50
2018-11-14T02:22:35.853Z,5.90
2018-11-14T02:25:10.422Z,6.30
2018-11-14T02:27:44.407Z,5.57
2018-11-14T02:30:21.755Z,5.87
2018-11-14T02:32:55.599Z,6.77
2018-11-14T02:35:29.573Z,6.13
2018-11-14T02:38:03.532Z,5.77
2018-11-14T02:40:37.388Z,6.13
2018-11-14T02:43:11.290Z,6.50
2018-11-14T02:45:45.156Z,5.67
2018-11-14T02:48:19.043Z,5.87
2018-11-14T02:50:58.542Z,6.10
2018-11-14T02:53:32.508Z,5.63
2018-11-14T02:56:07.963Z,6.80
2018-11-14T02:58:41.840Z,5.70
2018-11-14T03:01:15.824Z,4.50
2018-11-14T03:03:49.733Z,5.20
2018-11-14T03:06:23.568Z,4.83
2018-11-14T03:08:57.490Z,4.87
2018-11-14T03:11:31.370Z,6.37
2018-11-14T03:14:05.442Z,5.10
2018-11-14T03:16:39.421Z,8.33
2018-11-14T03:19:13.383Z,6.90
2018-11-14T03:21:49.306Z,5.30
2018-11-14T03:24:23.288Z,6.77
2018-11-14T03:26:57.281Z,7.97
2018-11-14T03:29:31.245Z,6.67
2018-11-14T03:32:05.222Z,7.20
2018-11-14T03:34:40.185Z,6.67
2018-11-14T03:37:14.068Z,7.50
2018-11-14T03:39:48.042Z,7.30
2018-11-14T03:42:22.041Z,7.00
2018-11-14T03:44:55.868Z,5.50
2018-11-14T03:47:29.854Z,5.40
2018-11-14T03:50:03.831Z,6.37
2018-11-14T03:52:37.835Z,6.30
2018-11-14T03:55:11.899Z,6.90
2018-11-14T03:57:45.754Z,6.00
2018-11-14T04:00:19.759Z,5.50
2018-11-14T04:02:53.774Z,5.13
2018-11-14T04:05:27.735Z,4.93
2018-11-14T04:08:01.717Z,5.70
2018-11-14T04:10:35.553Z,6.20
2018-11-14T04:13:09.395Z,7.30
2018-11-14T04:15:43.341Z,10.43
2018-11-14T04:18:17.345Z,8.63
2018-11-14T04:20:52.151Z,6.67
2018-11-14T04:23:26.233Z,6.70
2018-11-14T04:26:00.218Z,7.50
2018-11-14T04:28:34.185Z,27.90
2018-11-14T04:31:08.218Z,8.10
2018-11-14T04:33:42.281Z,6.23
2018-11-14T04:36:16.277Z,6.97
2018-11-14T04:38:50.258Z,6.10
2018-11-14T04:41:24.137Z,6.60
2018-11-14T04:43:58.029Z,6.90
2018-11-14T04:46:31.882Z,7.93
2018-11-14T04:49:05.751Z,7.33
2018-11-14T04:51:39.756Z,7.00
2018-11-14T04:54:13.854Z,7.40
2018-11-14T04:56:47.819Z,6.70
2018-11-14T04:59:21.842Z,6.10
2018-11-14T05:01:55.759Z,5.90
2018-11-14T05:04:29.661Z,7.00
2018-11-14T05:07:03.646Z,8.23
2018-11-14T05:09:37.623Z,8.90
2018-11-14T05:12:11.653Z,6.40
2018-11-14T05:14:45.482Z,7.40
2018-11-14T05:17:19.495Z,6.87
2018-11-14T05:19:53.507Z,5.30
2018-11-14T05:22:27.459Z,8.87
2018-11-14T05:25:01.333Z,8.00
2018-11-14T05:27:35.321Z,7.37
2018-11-14T05:30:10.334Z,8.50
2018-11-14T05:32:45.181Z,8.10
2018-11-14T05:35:19.266Z,9.00
2018-11-14T05:37:53.129Z,7.03
2018-11-14T05:40:27.097Z,7.73
2018-11-14T05:43:01.083Z,6.90
2018-11-14T05:45:35.063Z,7.67
2018-11-14T05:48:08.857Z,7.67
2018-11-14T05:50:42.854Z,7.83
2018-11-14T05:53:16.796Z,9.60
2018-11-14T05:55:50.734Z,15.03
2018-11-14T05:58:24.784Z,12.17
2018-11-14T06:00:58.666Z,9.97
2018-11-14T06:03:39.346Z,8.03
2018-11-14T06:06:13.345Z,8.87
2018-11-14T06:08:47.359Z,8.70
2018-11-14T06:11:21.469Z,7.77
2018-11-14T06:13:55.525Z,8.40
2018-11-14T06:16:29.521Z,8.93
2018-11-14T06:19:03.554Z,8.87
2018-11-14T06:21:37.595Z,12.00
2018-11-14T06:24:11.694Z,11.40
2018-11-14T06:26:45.630Z,12.30
2018-11-14T06:29:19.589Z,12.03
2018-11-14T06:31:53.512Z,14.10
2018-11-14T06:34:27.393Z,13.87
2018-11-14T06:37:02.438Z,16.67
2018-11-14T06:39:36.315Z,22.93
2018-11-14T06:42:10.985Z,25.67
2018-11-14T06:44:44.889Z,24.60
2018-11-14T06:47:18.946Z,24.37
2018-11-14T06:49:53.414Z,23.27
2018-11-14T06:52:27.332Z,20.13
2018-11-14T06:55:01.299Z,21.63
2018-11-14T06:57:35.506Z,20.87
2018-11-14T07:00:15.100Z,22.00
2018-11-14T07:02:49.296Z,24.80
2018-11-14T07:05:23.281Z,25.97
2018-11-14T07:07:57.403Z,29.10
2018-11-14T07:10:32.702Z,26.50
2018-11-14T07:13:08.642Z,23.57
2018-11-14T07:15:43.304Z,27.13
2018-11-14T07:18:17.503Z,27.30
2018-11-14T07:20:51.766Z,31.17
2018-11-14T07:23:25.960Z,31.67
2018-11-14T07:26:00.055Z,28.50
2018-11-14T07:28:34.259Z,27.00
2018-11-14T07:31:08.368Z,30.63
2018-11-14T07:33:42.418Z,30.33
2018-11-14T07:36:16.400Z,42.83
2018-11-14T07:38:51.484Z,36.40
2018-11-14T07:41:27.511Z,33.60
2018-11-14T07:44:01.697Z,31.77
2018-11-14T07:46:36.575Z,31.77
2018-11-14T07:49:10.848Z,32.40
2018-11-14T07:51:44.962Z,31.97
2018-11-14T07:54:19.103Z,32.40
2018-11-14T07:56:53.306Z,29.53
2018-11-14T07:59:27.389Z,29.53
2018-11-14T08:02:01.604Z,34.70
2018-11-14T08:04:35.688Z,32.97
2018-11-14T08:07:10.122Z,32.90
2018-11-14T08:09:44.268Z,29.87
2018-11-14T08:12:18.609Z,34.43
2018-11-14T08:14:52.767Z,32.03
2018-11-14T08:17:27.002Z,36.20
2018-11-14T08:20:01.670Z,29.90
2018-11-14T08:22:35.716Z,32.87
2018-11-14T08:25:09.994Z,31.07
2018-11-14T08:27:44.351Z,31.90
2018-11-14T08:30:19.768Z,31.97
2018-11-14T08:32:53.844Z,28.70
2018-11-14T08:35:28.096Z,32.53
2018-11-14T08:38:02.217Z,29.97
2018-11-14T08:40:36.453Z,27.53
2018-11-14T08:43:10.750Z,29.17
2018-11-14T08:45:44.808Z,27.80
2018-11-14T08:48:18.867Z,28.53
2018-11-14T08:50:52.988Z,27.07
2018-11-14T08:53:27.070Z,25.53
2018-11-14T08:56:01.185Z,25.10
2018-11-14T08:58:35.211Z,25.20
2018-11-14T09:01:09.323Z,25.50
2018-11-14T09:06:23.937Z,21.93
2018-11-14T09:08:58.070Z,21.57
2018-11-14T09:11:32.090Z,23.07
2018-11-14T09:14:06.117Z,20.63
2018-11-14T09:16:40.257Z,16.13
2018-11-14T09:19:14.431Z,16.57
2018-11-14T09:21:48.467Z,16.77
2018-11-14T09:24:22.556Z,15.57
2018-11-14T09:26:56.527Z,18.00
2018-11-14T09:29:30.493Z,19.43
2018-11-14T09:32:04.549Z,17.40
2018-11-14T09:34:38.600Z,17.20
2018-11-14T09:37:12.775Z,16.27
2018-11-14T09:39:46.973Z,18.57
2018-11-14T09:42:20.985Z,18.00
2018-11-14T09:44:55.217Z,18.23
2018-11-14T09:47:29.254Z,18.90
2018-11-14T09:50:03.389Z,20.63
2018-11-14T09:52:37.637Z,21.20
2018-11-14T09:55:12.412Z,20.07
2018-11-14T09:57:46.820Z,17.27
2018-11-14T10:00:23.100Z,17.30
2018-11-14T10:03:05.315Z,17.20
2018-11-14T10:05:39.334Z,18.47
2018-11-14T10:08:13.490Z,19.70
2018-11-14T10:10:47.809Z,19.97
2018-11-14T10:13:22.092Z,18.37
2018-11-14T10:15:56.039Z,19.67
2018-11-14T10:18:30.047Z,18.57
2018-11-14T10:21:04.141Z,21.10
2018-11-14T10:23:38.247Z,21.87
2018-11-14T10:26:12.325Z,22.67
2018-11-14T10:28:46.394Z,21.93
2018-11-14T10:31:20.519Z,21.93
2018-11-14T10:33:54.610Z,21.63
2018-11-14T10:36:28.588Z,20.83
2018-11-14T10:39:02.877Z,23.37
2018-11-14T10:41:37.439Z,21.13
2018-11-14T10:44:12.018Z,21.20
2018-11-14T10:46:46.299Z,20.17
2018-11-14T10:49:20.409Z,24.40
2018-11-14T10:51:55.217Z,24.77
2018-11-14T10:54:29.358Z,25.47
2018-11-14T10:57:03.731Z,23.60
2018-11-14T10:59:37.920Z,21.77
2018-11-14T11:02:17.732Z,24.40
2018-11-14T11:04:57.075Z,24.17
2018-11-14T11:07:36.526Z,25.70
2018-11-14T11:10:15.903Z,26.67
2018-11-14T11:12:55.284Z,23.80
2018-11-14T11:15:34.494Z,23.27
2018-11-14T11:18:11.714Z,26.20
2018-11-14T11:20:45.893Z,25.77
2018-11-14T11:23:20.393Z,26.63
2018-11-14T11:25:54.652Z,22.70
2018-11-14T11:28:29.499Z,26.50
2018-11-14T11:31:03.865Z,25.63
2018-11-14T11:33:38.429Z,24.50
2018-11-14T11:36:12.598Z,24.70
2018-11-14T11:38:46.850Z,24.30
2018-11-14T11:41:21.085Z,23.37
2018-11-14T11:43:55.415Z,24.67
2018-11-14T11:46:29.449Z,24.30
2018-11-14T11:49:03.537Z,23.80
2018-11-14T11:51:37.835Z,25.00
2018-11-14T11:54:11.813Z,26.00
2018-11-14T11:56:46.058Z,24.63
2018-11-14T11:59:20.908Z,26.20
2018-11-14T12:01:55.534Z,23.50
2018-11-14T12:04:30.135Z,25.37
2018-11-14T12:07:03.967Z,23.43
2018-11-14T12:09:38.074Z,23.60
2018-11-14T12:12:12.299Z,22.97
2018-11-14T12:14:46.485Z,22.93
2018-11-14T12:17:20.777Z,24.80
2018-11-14T12:19:55.207Z,24.40
2018-11-14T12:22:29.311Z,24.93
2018-11-14T12:25:03.932Z,25.33
2018-11-14T12:27:38.234Z,26.43
2018-11-14T12:30:15.141Z,27.03
2018-11-14T12:32:49.064Z,24.70
2018-11-14T12:35:23.172Z,24.43
2018-11-14T12:37:57.295Z,23.50
2018-11-14T12:40:31.526Z,24.90
2018-11-14T12:43:05.761Z,22.67
2018-11-14T12:45:39.742Z,24.67
2018-11-14T12:48:14.095Z,22.83
2018-11-14T12:50:48.215Z,21.73
2018-11-14T12:53:23.399Z,21.93
2018-11-14T12:55:57.554Z,21.77
2018-11-14T12:58:32.005Z,24.60
2018-11-14T13:01:06.255Z,22.20
2018-11-14T13:03:40.947Z,20.67
2018-11-14T13:06:15.019Z,25.73
2018-11-14T13:08:49.130Z,22.60
2018-11-14T13:11:23.401Z,21.40
2018-11-14T13:13:57.455Z,22.33
2018-11-14T13:16:31.858Z,23.80
2018-11-14T13:19:06.260Z,19.47
2018-11-14T13:32:42.893Z,18.90
2018-11-14T13:35:18.539Z,22.60
2018-11-14T13:37:52.731Z,20.50
2018-11-14T13:43:07.899Z,20.10
2018-11-14T13:45:42.136Z,22.10
2018-11-14T13:48:16.098Z,19.27
2018-11-14T13:50:55.125Z,20.40
2018-11-14T13:53:29.145Z,19.17
2018-11-14T13:56:03.527Z,21.37
2018-11-14T13:58:37.750Z,22.90
2018-11-14T14:01:15.333Z,22.30
2018-11-14T14:03:49.440Z,21.63
2018-11-14T14:06:23.609Z,24.00
2018-11-14T14:08:57.757Z,23.40
2018-11-14T14:11:32.128Z,22.60
2018-11-14T14:14:14.834Z,23.57
2018-11-14T14:16:49.137Z,22.50
2018-11-14T14:19:23.614Z,20.83
2018-11-14T14:21:57.767Z,23.87
2018-11-14T14:24:31.850Z,22.77
2018-11-14T14:27:06.114Z,21.70
2018-11-14T14:29:40.260Z,23.03
2018-11-14T14:32:14.701Z,20.17
2018-11-14T14:34:48.784Z,23.67
2018-11-14T14:37:22.956Z,21.83
2018-11-14T14:39:57.597Z,22.53
2018-11-14T14:42:32.603Z,23.77
2018-11-14T14:45:07.377Z,23.57
2018-11-14T14:47:41.880Z,24.43
2018-11-14T14:50:18.843Z,21.20
2018-11-14T14:52:53.362Z,24.93
2018-11-14T14:55:27.560Z,27.63
2018-11-14T14:58:01.893Z,22.97
2018-11-14T15:00:36.237Z,23.80
2018-11-14T15:03:17.283Z,23.77
2018-11-14T15:05:51.732Z,22.47
2018-11-14T15:08:25.898Z,21.40
2018-11-14T15:11:00.133Z,21.23
2018-11-14T15:13:34.435Z,22.13
2018-11-14T15:16:08.570Z,23.03
2018-11-14T15:18:43.026Z,20.67
2018-11-14T15:21:17.230Z,21.97
2018-11-14T15:23:51.371Z,20.97
2018-11-14T15:26:25.513Z,21.43
2018-11-14T15:31:39.594Z,19.90
2018-11-14T15:34:13.708Z,22.83
2018-11-14T15:36:47.862Z,18.93
2018-11-14T15:39:22.194Z,22.20
2018-11-14T15:41:56.464Z,21.90
2018-11-14T15:44:31.098Z,21.90
2018-11-14T15:47:05.418Z,22.30
2018-11-14T15:49:39.736Z,19.33
2018-11-14T15:52:13.845Z,20.77
2018-11-14T15:54:48.434Z,21.67
2018-11-14T15:57:22.557Z,26.00
2018-11-14T15:59:56.829Z,20.40
2018-11-14T16:02:31.364Z,21.50
2018-11-14T16:05:07.557Z,22.20
2018-11-14T16:07:43.875Z,19.47
2018-11-14T16:10:19.264Z,24.70
2018-11-14T16:12:53.524Z,16.80
2018-11-14T16:15:30.516Z,24.33
2018-11-14T16:18:05.354Z,24.30
2018-11-14T16:20:39.553Z,27.10
2018-11-14T16:23:13.881Z,25.50
2018-11-14T16:25:48.147Z,22.67
2018-11-14T16:28:22.676Z,25.33
2018-11-14T16:30:56.906Z,22.73
2018-11-14T16:33:30.974Z,23.27
2018-11-14T16:36:05.475Z,23.40
2018-11-14T16:38:39.593Z,17.83
2018-11-14T16:41:13.664Z,20.00
2018-11-14T16:43:47.902Z,20.03
2018-11-14T16:46:22.098Z,19.90
2018-11-14T16:48:56.547Z,22.57
2018-11-14T16:51:30.822Z,21.20
2018-11-14T16:54:05.220Z,22.63
2018-11-14T16:56:39.778Z,21.27
2018-11-14T16:59:14.000Z,23.17
2018-11-14T17:01:48.511Z,23.80
2018-11-14T17:04:22.852Z,20.10
2018-11-14T17:06:56.997Z,22.90
2018-11-14T17:09:31.302Z,23.57
2018-11-14T17:12:05.589Z,24.47
2018-11-14T17:14:39.896Z,22.17
2018-11-14T17:17:14.249Z,27.53
2018-11-14T17:19:49.003Z,23.60
2018-11-14T17:22:23.157Z,25.27
2018-11-14T17:24:57.403Z,23.87
2018-11-14T17:27:31.519Z,21.77
2018-11-14T17:30:07.611Z,26.53
2018-11-14T17:32:42.230Z,22.60
2018-11-14T17:35:16.686Z,22.27
2018-11-14T17:37:50.851Z,20.70
2018-11-14T17:40:26.756Z,22.77
2018-11-14T17:43:03.139Z,27.00
2018-11-14T17:45:37.538Z,26.47
2018-11-14T17:48:12.241Z,26.57
2018-11-14T17:50:46.416Z,25.80
2018-11-14T17:56:00.750Z,23.93
2018-11-14T17:58:34.955Z,24.57
2018-11-14T18:01:09.334Z,26.10
2018-11-14T18:03:43.560Z,27.40
2018-11-14T18:06:17.974Z,28.57
2018-11-14T18:08:52.245Z,30.00
2018-11-14T18:11:26.322Z,27.33
2018-11-14T18:14:00.792Z,29.73
2018-11-14T18:16:34.753Z,29.47
2018-11-14T18:19:08.909Z,28.83
2018-11-14T18:21:43.130Z,28.43
2018-11-14T18:24:17.610Z,33.53
2018-11-14T18:26:52.232Z,29.23
2018-11-14T18:29:26.393Z,30.60
2018-11-14T18:32:00.613Z,32.40
2018-11-14T18:34:34.591Z,27.40
2018-11-14T18:37:08.710Z,25.13
2018-11-14T18:39:43.091Z,24.93
2018-11-14T18:42:17.131Z,28.30
2018-11-14T18:44:51.774Z,23.00
2018-11-14T18:47:26.355Z,25.50
2018-11-14T18:50:00.506Z,26.93
2018-11-14T18:52:34.563Z,26.70
2018-11-14T18:55:10.233Z,28.80
2018-11-14T18:57:44.579Z,29.17
2018-11-14T19:00:21.486Z,28.57
2018-11-14T19:02:55.824Z,30.60
2018-11-14T19:05:30.293Z,30.53
2018-11-14T19:08:05.392Z,31.03
2018-11-14T19:10:39.689Z,31.50
2018-11-14T19:13:13.747Z,31.30
2018-11-14T19:15:47.847Z,30.73
2018-11-14T19:18:22.020Z,27.17
2018-11-14T19:20:55.846Z,32.20
2018-11-14T19:23:29.999Z,28.80
2018-11-14T19:26:04.103Z,30.90
2018-11-14T19:28:38.087Z,29.03
2018-11-14T19:31:12.098Z,30.70
2018-11-14T19:33:46.187Z,32.40
2018-11-14T19:36:20.259Z,31.73
2018-11-14T19:38:54.269Z,35.17
2018-11-14T19:41:28.656Z,31.27
2018-11-14T19:44:02.826Z,34.57
2018-11-14T19:46:36.809Z,30.87
2018-11-14T19:49:10.802Z,33.57
2018-11-14T19:51:44.974Z,33.70
2018-11-14T19:54:18.998Z,32.73
2018-11-14T19:56:53.008Z,34.70
2018-11-14T19:59:27.147Z,33.10
2018-11-14T20:02:01.236Z,33.47
2018-11-14T20:04:35.269Z,38.07
2018-11-14T20:07:09.398Z,36.10
2018-11-14T20:09:43.485Z,35.40
2018-11-14T20:12:17.546Z,34.27
2018-11-14T20:14:51.621Z,32.00
2018-11-14T20:17:25.696Z,34.00
2018-11-14T20:19:59.740Z,33.80
2018-11-14T20:22:33.857Z,30.87
2018-11-14T20:25:08.209Z,27.73
2018-11-14T20:27:42.741Z,31.17
2018-11-14T20:30:18.655Z,30.33
2018-11-14T20:32:53.667Z,31.10
2018-11-14T20:35:28.349Z,30.20
2018-11-14T20:38:02.352Z,29.80
2018-11-14T20:40:38.640Z,30.67
2018-11-14T20:43:12.778Z,27.90
2018-11-14T20:45:46.868Z,28.37
2018-11-14T20:48:20.785Z,22.50
2018-11-14T20:50:54.802Z,25.10
2018-11-14T20:53:28.851Z,19.80
2018-11-14T20:56:02.900Z,25.23
2018-11-14T20:58:36.988Z,27.20
2018-11-14T21:01:11.031Z,26.80
2018-11-14T21:03:44.928Z,26.10
2018-11-14T21:06:18.939Z,25.87
2018-11-14T21:08:52.921Z,24.23
2018-11-14T21:11:26.794Z,27.07
2018-11-14T21:14:00.963Z,25.33
2018-11-14T21:16:35.021Z,23.43
2018-11-14T21:19:09.006Z,20.27
2018-11-14T21:21:42.998Z,24.00
2018-11-14T21:24:17.187Z,25.87
2018-11-14T21:26:51.427Z,25.23
2018-11-14T21:29:25.537Z,25.20
2018-11-14T21:31:59.489Z,25.50
2018-11-14T21:34:33.638Z,22.50
2018-11-14T21:37:07.609Z,27.83
2018-11-14T21:39:41.595Z,24.20
2018-11-14T21:42:15.557Z,25.70
2018-11-14T21:44:49.502Z,23.40
2018-11-14T21:47:28.813Z,24.57
2018-11-14T21:50:03.143Z,23.60
2018-11-14T21:52:37.303Z,23.47
2018-11-14T21:55:12.046Z,23.43
2018-11-14T21:57:46.089Z,22.07
2018-11-14T22:00:23.431Z,24.70
2018-11-14T22:02:57.480Z,26.20
2018-11-14T22:05:31.556Z,22.73
2018-11-14T22:08:05.728Z,22.30
2018-11-14T22:10:39.805Z,26.17
2018-11-14T22:13:13.774Z,21.47
2018-11-14T22:15:47.711Z,23.00
2018-11-14T22:18:21.678Z,21.23
2018-11-14T22:20:55.806Z,16.10
2018-11-14T22:23:34.339Z,20.60
2018-11-14T22:26:08.263Z,23.33
2018-11-14T22:28:42.164Z,21.00
2018-11-14T22:31:16.167Z,21.67
2018-11-14T22:33:50.134Z,20.57
2018-11-14T22:36:24.254Z,21.47
2018-11-14T22:38:58.248Z,20.80
2018-11-14T22:41:32.393Z,20.90
2018-11-14T22:44:06.528Z,22.23
2018-11-14T22:46:40.581Z,22.03
2018-11-14T22:49:14.626Z,24.00
2018-11-14T22:51:48.604Z,23.93
2018-11-14T22:54:22.823Z,24.60
2018-11-14T22:56:56.880Z,26.50
2018-11-14T22:59:30.945Z,24.80
2018-11-14T23:02:05.317Z,25.17
2018-11-14T23:04:39.225Z,25.40
2018-11-14T23:07:13.152Z,26.93
2018-11-14T23:09:47.072Z,25.87
2018-11-14T23:12:20.994Z,25.00
2018-11-14T23:14:54.906Z,23.73
2018-11-14T23:17:29.018Z,25.67
2018-11-14T23:20:03.110Z,25.50
2018-11-14T23:22:37.058Z,26.73
2018-11-14T23:25:11.693Z,21.77
2018-11-14T23:27:46.919Z,26.33
2018-11-14T23:30:22.038Z,23.77
2018-11-14T23:32:56.939Z,25.50
2018-11-14T23:35:31.951Z,24.37
2018-11-14T23:38:06.816Z,24.00
2018-11-14T23:40:40.870Z,24.60
2018-11-14T23:43:15.178Z,23.60
2018-11-14T23:45:49.049Z,25.67
2018-11-14T23:48:23.071Z,24.13
2018-11-14T23:50:57.015Z,25.03
2018-11-14T23:53:31.011Z,23.70
2018-11-14T23:56:05.235Z,24.93
2018-11-14T23:58:39.226Z,24.67
